This is the latest recevied weather packets stored in our database for station/object F5NTS. If no packets are shown the sender has not sent any weather packets the latest 10 day(s).
| Time | Temp. | Humidity | Pressure | Rain* | Wind** | Luminosity | Snow |
|---|---|---|---|---|---|---|---|
| 1778147704 | 14.44° C | 75% | 1012.8 hPa | 0 mm | - | - | - |
| 1778145604 | 14.44° C | 81% | 1012.9 hPa | 0 mm | - | - | - |
| 1778140804 | 11.67° C | 95% | 1012.3 hPa | 0 mm | - | - | - |
| 1778138404 | 10.56° C | 95% | 1012.3 hPa | 0 mm | - | - | - |
| 1778138104 | 10.56° C | 95% | 1012.3 hPa | 0 mm | - | - | - |
| 1778137805 | 10° C | 95% | 1012.1 hPa | 0 mm | - | - | - |
| 1778134804 | 8.33° C | 95% | 1011.7 hPa | 0 mm | - | - | - |
| 1778133004 | 6.67° C | 95% | 1011.6 hPa | 0 mm | - | - | - |
| 1778131504 | 5.56° C | 95% | 1011.5 hPa | 0 mm | - | - | - |
| 1778130604 | 5° C | 95% | 1011.3 hPa | 0 mm | - | - | - |
| 1778129704 | 4.44° C | 95% | 1011.1 hPa | 0 mm | - | - | - |
| 1778126405 | 2.78° C | 94% | 1010.8 hPa | 0 mm | - | - | - |
| 1778126104 | 2.78° C | 94% | 1010.8 hPa | 0 mm | - | - | - |
| 1778125504 | 2.78° C | 94% | 1010.8 hPa | 0 mm | - | - | - |
| 1778124905 | 3.33° C | 94% | 1010.9 hPa | 0 mm | - | - | - |
| 1778121305 | 4.44° C | 93% | 1010.5 hPa | 0 mm | - | - | - |
| 1778120704 | 4.44° C | 93% | 1010.4 hPa | 0 mm | - | - | - |
| 1778116204 | 4.44° C | 92% | 1010.1 hPa | 0 mm | - | - | - |
| 1778115605 | 4.44° C | 91% | 1010.1 hPa | 0 mm | - | - | - |
| 1778113504 | 5° C | 90% | 1010 hPa | 0 mm | - | - | - |
| 1778109605 | 6.67° C | 88% | 1009.6 hPa | 0 mm | - | - | - |
| 1778109304 | 6.67° C | 88% | 1009.6 hPa | 0 mm | - | - | - |
| 1778107504 | 7.78° C | 87% | 1009.8 hPa | 0 mm | - | - | - |
| 1778103904 | 9.44° C | 83% | 1009.2 hPa | 0 mm | - | - | - |
| 1778100004 | 10.56° C | 80% | 1008.6 hPa | 0 mm | - | - | - |
* Rain latest hour (hover to see other rain measurements)
** Current wind speed in m/s (hover to see current wind gust speed)